createdAt,value
2019-01-26T00:01:08.801Z,4.91
2019-01-26T00:03:40.461Z,4.88
2019-01-26T00:06:12.223Z,4.88
2019-01-26T00:08:46.939Z,4.89
2019-01-26T00:11:22.065Z,4.91
2019-01-26T00:13:53.891Z,4.93
2019-01-26T00:16:25.660Z,4.96
2019-01-26T00:18:57.344Z,4.96
2019-01-26T00:21:29.034Z,4.95
2019-01-26T00:24:04.538Z,4.96
2019-01-26T00:26:36.491Z,4.96
2019-01-26T00:29:08.289Z,4.95
2019-01-26T00:31:39.924Z,4.95
2019-01-26T00:34:12.838Z,4.94
2019-01-26T00:36:44.490Z,4.94
2019-01-26T00:39:16.161Z,4.99
2019-01-26T00:41:53.751Z,5.03
2019-01-26T00:44:26.702Z,5.06
2019-01-26T00:46:59.939Z,5.05
2019-01-26T00:49:31.633Z,5.13
2019-01-26T00:52:03.300Z,5.16
2019-01-26T00:54:35.015Z,5.20
2019-01-26T00:57:06.780Z,5.23
2019-01-26T00:59:41.521Z,5.22
2019-01-26T01:02:15.175Z,5.26
2019-01-26T01:04:46.973Z,5.29
2019-01-26T01:07:18.596Z,5.30
2019-01-26T01:09:50.381Z,5.35
2019-01-26T01:12:23.006Z,5.37
2019-01-26T01:14:54.845Z,5.37
2019-01-26T01:17:28.106Z,5.34
2019-01-26T01:19:59.724Z,5.34
2019-01-26T01:22:31.412Z,5.35
2019-01-26T01:25:03.061Z,5.35
2019-01-26T01:27:34.721Z,5.36
2019-01-26T01:30:08.567Z,5.36
2019-01-26T01:32:40.287Z,5.37
2019-01-26T01:35:11.914Z,5.37
2019-01-26T01:37:43.679Z,5.34
2019-01-26T01:40:18.515Z,5.31
2019-01-26T01:42:50.228Z,5.30
2019-01-26T01:45:22.215Z,5.28
2019-01-26T01:47:54.011Z,5.26
2019-01-26T01:50:26.903Z,5.26
2019-01-26T01:53:06.321Z,5.28
2019-01-26T01:55:38.101Z,5.29
2019-01-26T01:58:09.919Z,5.29
2019-01-26T02:00:43.154Z,5.28
2019-01-26T02:03:15.030Z,5.27
2019-01-26T02:05:46.984Z,5.28
2019-01-26T02:08:22.618Z,5.29
2019-01-26T02:10:55.062Z,5.29
2019-01-26T02:13:33.011Z,5.30
2019-01-26T02:16:14.342Z,5.30
2019-01-26T02:19:04.128Z,5.31
2019-01-26T02:21:43.949Z,5.33
2019-01-26T02:24:21.155Z,5.34
2019-01-26T02:26:53.027Z,5.35
2019-01-26T02:29:24.705Z,5.37
2019-01-26T02:31:57.562Z,5.37
2019-01-26T02:34:30.332Z,5.35
2019-01-26T02:37:06.827Z,5.34
2019-01-26T02:39:42.064Z,5.26
2019-01-26T02:42:15.688Z,5.33
2019-01-26T02:44:47.377Z,5.34
2019-01-26T02:47:18.978Z,5.34
2019-01-26T02:49:50.610Z,5.34
2019-01-26T02:52:22.238Z,5.34
2019-01-26T02:54:53.872Z,5.32
2019-01-26T02:57:25.468Z,5.36
2019-01-26T02:59:57.134Z,5.35
2019-01-26T03:02:29.306Z,5.36
2019-01-26T03:05:01.554Z,5.37
2019-01-26T03:07:33.123Z,5.38
2019-01-26T03:10:05.771Z,5.37
2019-01-26T03:12:37.461Z,5.37
2019-01-26T03:15:12.195Z,5.38
2019-01-26T03:17:43.791Z,5.40
2019-01-26T03:20:16.538Z,5.38
2019-01-26T03:22:48.328Z,5.39
2019-01-26T03:25:21.153Z,5.40
2019-01-26T03:27:52.793Z,5.39
2019-01-26T03:30:27.188Z,5.39
2019-01-26T03:32:58.842Z,5.37
2019-01-26T03:35:30.460Z,5.37
2019-01-26T03:38:02.143Z,5.37
2019-01-26T03:40:33.940Z,5.37
2019-01-26T03:43:05.636Z,5.39
2019-01-26T03:45:37.436Z,5.40
2019-01-26T03:48:10.560Z,5.39
2019-01-26T03:50:42.230Z,5.38
2019-01-26T03:53:13.880Z,5.37
2019-01-26T03:55:45.997Z,5.37
2019-01-26T03:58:17.815Z,5.37
2019-01-26T04:00:49.444Z,5.37
2019-01-26T04:03:21.252Z,5.40
2019-01-26T04:05:52.951Z,5.40
2019-01-26T04:08:24.608Z,5.40
2019-01-26T04:10:56.817Z,5.39
2019-01-26T04:13:28.543Z,5.39
2019-01-26T04:16:00.173Z,5.38
2019-01-26T04:18:31.903Z,5.39
2019-01-26T04:21:03.517Z,5.41
2019-01-26T04:23:35.153Z,5.45
2019-01-26T04:26:07.220Z,5.45
2019-01-26T04:28:38.858Z,5.47
2019-01-26T04:31:10.487Z,5.51
2019-01-26T04:33:42.248Z,5.53
2019-01-26T04:36:13.897Z,5.55
2019-01-26T04:38:49.825Z,5.55
2019-01-26T04:41:22.730Z,5.58
2019-01-26T04:43:54.351Z,5.57
2019-01-26T04:46:26.085Z,5.54
2019-01-26T04:48:57.808Z,5.58
2019-01-26T04:51:29.416Z,5.59
2019-01-26T04:54:01.143Z,5.58
2019-01-26T04:56:32.829Z,5.57
2019-01-26T04:59:04.586Z,5.56
2019-01-26T05:01:36.169Z,5.55
2019-01-26T05:04:07.978Z,5.54
2019-01-26T05:06:39.567Z,5.55
2019-01-26T05:09:11.340Z,5.55
2019-01-26T05:11:43.596Z,5.54
2019-01-26T05:14:15.326Z,5.53
2019-01-26T05:16:46.954Z,5.52
2019-01-26T05:19:19.004Z,5.54
2019-01-26T05:21:50.664Z,5.53
2019-01-26T05:24:22.317Z,5.53
2019-01-26T05:26:53.992Z,5.53
2019-01-26T05:29:25.646Z,5.54
2019-01-26T05:31:57.412Z,5.54
2019-01-26T05:34:29.021Z,5.57
2019-01-26T05:37:00.962Z,5.56
2019-01-26T05:39:32.613Z,5.58
2019-01-26T05:42:04.289Z,5.59
2019-01-26T05:44:35.892Z,5.61
2019-01-26T05:47:09.034Z,5.60
2019-01-26T05:49:40.730Z,5.61
2019-01-26T05:52:12.482Z,5.64
2019-01-26T05:54:49.475Z,5.65
2019-01-26T05:57:22.458Z,5.64
2019-01-26T05:59:55.252Z,5.63
2019-01-26T06:02:27.387Z,5.65
2019-01-26T06:04:59.176Z,5.67
2019-01-26T06:07:31.649Z,5.68
2019-01-26T06:10:03.266Z,5.69
2019-01-26T06:12:35.204Z,5.68
2019-01-26T06:15:08.003Z,5.67
2019-01-26T06:17:39.639Z,5.67
2019-01-26T06:20:11.828Z,5.68
2019-01-26T06:22:43.813Z,5.69
2019-01-26T06:25:16.782Z,5.72
2019-01-26T06:27:48.832Z,5.73
2019-01-26T06:30:23.346Z,5.73
2019-01-26T06:32:54.976Z,5.74
2019-01-26T06:35:26.587Z,5.74
2019-01-26T06:37:58.361Z,5.76
2019-01-26T06:40:29.958Z,5.76
2019-01-26T06:43:01.652Z,5.77
2019-01-26T06:45:33.353Z,5.79
2019-01-26T06:48:05.118Z,5.80
2019-01-26T06:50:36.778Z,5.80
2019-01-26T06:53:08.519Z,5.81
2019-01-26T06:55:42.881Z,5.84
2019-01-26T06:58:14.598Z,5.85
2019-01-26T07:00:50.613Z,5.86
2019-01-26T07:03:24.821Z,5.89
2019-01-26T07:06:16.943Z,5.88
2019-01-26T07:08:53.873Z,5.88
2019-01-26T07:11:39.889Z,5.88
2019-01-26T07:14:10.023Z,5.88
2019-01-26T07:16:42.112Z,5.88
2019-01-26T07:19:13.857Z,5.91
2019-01-26T07:21:45.503Z,5.92
2019-01-26T07:24:17.241Z,5.96
2019-01-26T07:26:48.917Z,6.01
2019-01-26T07:29:20.589Z,6.03
2019-01-26T07:31:52.535Z,6.05
2019-01-26T07:34:24.187Z,6.08
2019-01-26T07:36:55.867Z,6.09
2019-01-26T07:39:27.687Z,6.09
2019-01-26T07:41:59.392Z,6.10
2019-01-26T07:44:31.008Z,6.11
2019-01-26T07:47:02.677Z,6.14
2019-01-26T07:49:34.384Z,6.17
2019-01-26T07:52:06.115Z,6.19
2019-01-26T07:54:37.859Z,6.20
2019-01-26T07:57:09.554Z,6.24
2019-01-26T07:59:41.210Z,6.25
2019-01-26T08:02:12.821Z,6.29
2019-01-26T08:04:44.536Z,6.31
2019-01-26T08:07:16.207Z,6.33
2019-01-26T08:09:48.066Z,6.35
2019-01-26T08:12:20.409Z,6.38
2019-01-26T08:14:52.175Z,6.42
2019-01-26T08:17:23.949Z,6.44
2019-01-26T08:19:55.731Z,6.49
2019-01-26T08:22:27.656Z,6.53
2019-01-26T08:24:59.550Z,6.55
2019-01-26T08:27:31.246Z,6.58
2019-01-26T08:30:03.455Z,6.61
2019-01-26T08:32:35.223Z,6.65
2019-01-26T08:35:07.236Z,6.67
2019-01-26T08:37:38.982Z,6.70
2019-01-26T08:40:12.455Z,6.70
2019-01-26T08:42:44.333Z,6.72
2019-01-26T08:45:16.870Z,6.75
2019-01-26T08:47:48.906Z,6.77
2019-01-26T08:50:29.149Z,6.79
2019-01-26T08:53:00.910Z,6.83
2019-01-26T08:55:32.572Z,6.83
2019-01-26T08:58:04.665Z,6.87
2019-01-26T09:00:36.354Z,6.88
2019-01-26T09:03:42.330Z,6.93
2019-01-26T09:06:24.504Z,6.94
2019-01-26T09:08:56.217Z,6.96
2019-01-26T09:11:29.364Z,6.98
2019-01-26T09:14:01.041Z,7.00
2019-01-26T09:16:32.772Z,7.02
2019-01-26T09:19:07.424Z,7.04
2019-01-26T09:21:39.091Z,7.09
2019-01-26T09:24:10.920Z,7.11
2019-01-26T09:26:42.827Z,7.14
2019-01-26T09:29:16.113Z,7.19
2019-01-26T09:31:47.874Z,7.28
2019-01-26T09:34:19.832Z,7.31
2019-01-26T09:36:51.511Z,7.37
2019-01-26T09:39:23.331Z,7.41
2019-01-26T09:41:55.213Z,7.44
2019-01-26T09:44:28.091Z,7.42
2019-01-26T09:46:59.762Z,7.44
2019-01-26T09:49:31.428Z,7.47
2019-01-26T09:52:07.621Z,7.51
2019-01-26T09:54:39.565Z,7.56
2019-01-26T09:57:11.225Z,7.60
2019-01-26T09:59:42.907Z,7.61
2019-01-26T10:02:14.613Z,7.62
2019-01-26T10:04:46.313Z,7.63
2019-01-26T10:07:25.921Z,7.63
2019-01-26T10:09:57.719Z,7.66
2019-01-26T10:12:32.481Z,7.68
2019-01-26T10:15:04.458Z,7.67
2019-01-26T10:17:45.444Z,7.68
2019-01-26T10:20:19.710Z,7.65
2019-01-26T10:22:51.734Z,7.63
2019-01-26T10:25:26.028Z,7.63
2019-01-26T10:27:58.019Z,7.64
2019-01-26T10:30:37.824Z,7.64
2019-01-26T10:33:13.296Z,7.63
2019-01-26T10:36:17.599Z,7.61
2019-01-26T10:39:01.623Z,7.59
2019-01-26T10:42:01.385Z,7.57
2019-01-26T10:44:34.041Z,7.56
2019-01-26T10:47:06.528Z,7.56
2019-01-26T10:49:41.300Z,7.59
2019-01-26T10:52:13.090Z,7.62
2019-01-26T10:54:45.111Z,7.66
2019-01-26T10:57:16.917Z,7.73
2019-01-26T10:59:51.401Z,7.76
2019-01-26T11:02:23.165Z,7.80
2019-01-26T11:04:57.724Z,7.83
2019-01-26T11:07:29.548Z,7.85
2019-01-26T11:10:01.446Z,7.89
2019-01-26T11:12:33.729Z,7.93
2019-01-26T11:15:06.384Z,7.96
2019-01-26T11:17:39.930Z,7.99
2019-01-26T11:20:12.486Z,8.03
2019-01-26T11:22:45.893Z,8.08
2019-01-26T11:25:17.904Z,8.10
2019-01-26T11:27:50.837Z,8.11
2019-01-26T11:30:26.185Z,8.07
2019-01-26T11:32:58.135Z,8.06
2019-01-26T11:35:29.885Z,7.99
2019-01-26T11:38:01.662Z,7.96
2019-01-26T11:40:36.810Z,7.98
2019-01-26T11:43:08.784Z,8.00
2019-01-26T11:46:02.263Z,8.00
2019-01-26T11:48:37.352Z,8.03
2019-01-26T11:51:27.874Z,8.07
2019-01-26T11:53:59.625Z,8.06
2019-01-26T11:56:50.313Z,8.03
2019-01-26T11:59:22.187Z,8.02
2019-01-26T12:02:00.784Z,8.02
2019-01-26T12:04:52.890Z,8.03
2019-01-26T12:07:34.863Z,8.06
2019-01-26T12:10:10.384Z,8.09
2019-01-26T12:12:42.850Z,8.15
2019-01-26T12:15:16.981Z,8.19
2019-01-26T12:17:48.940Z,8.22
2019-01-26T12:20:21.544Z,8.21
2019-01-26T12:22:53.661Z,8.25
2019-01-26T12:25:25.509Z,8.29
2019-01-26T12:27:57.628Z,8.28
2019-01-26T12:30:31.097Z,8.28
2019-01-26T12:33:02.779Z,8.26
2019-01-26T12:35:34.415Z,8.27
2019-01-26T12:38:08.161Z,8.32
2019-01-26T12:40:39.988Z,8.37
2019-01-26T12:43:12.086Z,8.39
2019-01-26T12:45:47.448Z,8.40
2019-01-26T12:48:19.054Z,8.41
2019-01-26T12:50:50.716Z,8.40
2019-01-26T12:53:26.114Z,8.41
2019-01-26T12:55:57.839Z,8.45
2019-01-26T12:58:29.684Z,8.46
2019-01-26T13:01:02.639Z,8.46
2019-01-26T13:03:35.023Z,8.44
2019-01-26T13:06:07.350Z,8.40
2019-01-26T13:08:39.827Z,8.38
2019-01-26T13:11:29.462Z,8.40
2019-01-26T13:14:01.561Z,8.40
2019-01-26T13:16:33.440Z,8.39
2019-01-26T13:19:05.257Z,8.39
2019-01-26T13:21:38.181Z,8.36
2019-01-26T13:24:11.010Z,8.36
2019-01-26T13:26:44.056Z,8.31
2019-01-26T13:29:15.820Z,8.27
2019-01-26T13:31:47.758Z,8.24
2019-01-26T13:34:19.406Z,8.24
2019-01-26T13:36:51.189Z,8.25
2019-01-26T13:39:22.919Z,8.25
2019-01-26T13:41:55.029Z,8.23
2019-01-26T13:44:26.809Z,8.25
2019-01-26T13:46:58.737Z,8.26
2019-01-26T13:49:30.748Z,8.28
2019-01-26T13:52:02.407Z,8.30
2019-01-26T13:54:35.361Z,8.34
2019-01-26T13:57:08.304Z,8.37
2019-01-26T13:59:40.275Z,8.42
2019-01-26T14:02:13.335Z,8.43
2019-01-26T14:04:45.540Z,8.43
2019-01-26T14:07:17.547Z,8.44
2019-01-26T14:09:50.826Z,8.43
2019-01-26T14:12:23.357Z,8.46
2019-01-26T14:14:55.050Z,8.50
2019-01-26T14:17:26.759Z,8.56
2019-01-26T14:19:58.737Z,8.60
2019-01-26T14:22:30.670Z,8.62
2019-01-26T14:25:02.360Z,8.64
2019-01-26T14:27:34.032Z,8.66
2019-01-26T14:30:10.768Z,8.71
2019-01-26T14:32:42.667Z,8.73
2019-01-26T14:35:14.505Z,8.74
2019-01-26T14:37:46.328Z,8.75
2019-01-26T14:40:18.313Z,8.74
2019-01-26T14:42:54.342Z,8.76
2019-01-26T14:45:23.841Z,8.79
2019-01-26T14:47:55.578Z,8.82
2019-01-26T14:50:27.447Z,8.84
2019-01-26T14:52:59.186Z,8.85
2019-01-26T14:55:31.174Z,8.84
2019-01-26T14:58:02.853Z,8.87
2019-01-26T15:00:35.519Z,8.88
2019-01-26T15:03:07.275Z,8.86
2019-01-26T15:05:39.068Z,8.83
2019-01-26T15:08:11.146Z,8.82
2019-01-26T15:10:43.153Z,8.82
2019-01-26T15:13:15.620Z,8.82
2019-01-26T15:15:47.383Z,8.82
2019-01-26T15:18:19.213Z,8.81
2019-01-26T15:20:51.143Z,8.82
2019-01-26T15:23:23.163Z,8.84
2019-01-26T15:25:54.922Z,8.83
2019-01-26T15:28:26.752Z,8.85
2019-01-26T15:30:58.531Z,8.86
2019-01-26T15:33:30.287Z,8.84
2019-01-26T15:36:08.687Z,8.83
2019-01-26T15:38:35.481Z,8.84
2019-01-26T15:41:09.385Z,8.83
2019-01-26T15:43:41.370Z,8.82
2019-01-26T15:46:13.274Z,8.80
2019-01-26T15:48:45.287Z,8.79
2019-01-26T15:51:17.207Z,8.80
2019-01-26T15:53:48.914Z,8.79
2019-01-26T15:56:20.728Z,8.77
2019-01-26T15:58:52.818Z,8.77
2019-01-26T16:01:24.658Z,8.77
2019-01-26T16:03:56.523Z,8.77
2019-01-26T16:06:28.531Z,8.78
2019-01-26T16:09:00.394Z,8.78
2019-01-26T16:11:33.030Z,8.77
2019-01-26T16:14:05.229Z,8.78
2019-01-26T16:16:37.429Z,8.78
2019-01-26T16:19:09.231Z,8.77
2019-01-26T16:21:42.613Z,8.76
2019-01-26T16:24:15.963Z,8.76
2019-01-26T16:26:47.802Z,8.75
2019-01-26T16:29:19.765Z,8.74
2019-01-26T16:31:53.585Z,8.72
2019-01-26T16:34:30.667Z,8.72
2019-01-26T16:37:04.825Z,8.73
2019-01-26T16:39:39.799Z,8.73
2019-01-26T16:42:11.570Z,8.75
2019-01-26T16:44:43.495Z,8.76
2019-01-26T16:47:15.449Z,8.75
2019-01-26T16:49:47.106Z,8.76
2019-01-26T16:52:19.148Z,8.77
2019-01-26T16:54:50.879Z,8.77
2019-01-26T16:57:22.658Z,8.78
2019-01-26T16:59:54.606Z,8.76
2019-01-26T17:02:26.733Z,8.75
2019-01-26T17:04:58.518Z,8.74
2019-01-26T17:07:31.185Z,8.71
2019-01-26T17:10:03.069Z,8.69
2019-01-26T17:12:35.480Z,8.69
2019-01-26T17:15:08.973Z,8.68
2019-01-26T17:17:41.131Z,8.67
2019-01-26T17:20:20.656Z,8.67
2019-01-26T17:22:52.438Z,8.66
2019-01-26T17:25:24.150Z,8.65
2019-01-26T17:27:55.885Z,8.65
2019-01-26T17:30:31.095Z,8.64
2019-01-26T17:33:07.359Z,8.63
2019-01-26T17:35:36.320Z,8.63
2019-01-26T17:38:08.256Z,8.62
2019-01-26T17:40:39.936Z,8.61
2019-01-26T17:43:11.599Z,8.59
2019-01-26T17:45:43.310Z,8.60
2019-01-26T17:48:15.771Z,8.60
2019-01-26T17:50:50.306Z,8.59
2019-01-26T17:53:23.487Z,8.57
2019-01-26T17:55:56.275Z,8.55
2019-01-26T17:58:27.929Z,8.53
2019-01-26T18:01:00.555Z,8.49
2019-01-26T18:03:32.398Z,8.45
2019-01-26T18:06:04.123Z,8.42
2019-01-26T18:08:35.927Z,8.40
2019-01-26T18:11:07.568Z,8.35
2019-01-26T18:13:39.540Z,8.33
2019-01-26T18:16:11.428Z,8.30
2019-01-26T18:18:43.680Z,8.28
2019-01-26T18:21:15.575Z,8.21
2019-01-26T18:23:47.427Z,8.24
2019-01-26T18:26:19.112Z,8.23
2019-01-26T18:28:51.110Z,8.22
2019-01-26T18:31:23.090Z,8.21
2019-01-26T18:33:54.813Z,8.23
2019-01-26T18:36:26.645Z,8.24
2019-01-26T18:38:58.449Z,8.27
2019-01-26T18:41:30.168Z,8.30
2019-01-26T18:44:01.967Z,8.34
2019-01-26T18:46:33.679Z,8.40
2019-01-26T18:49:05.494Z,8.44
2019-01-26T18:51:37.510Z,8.47
2019-01-26T18:54:09.414Z,8.51
2019-01-26T18:56:41.075Z,8.55
2019-01-26T18:59:12.735Z,8.59
2019-01-26T19:01:44.552Z,8.61
2019-01-26T19:04:28.261Z,8.63
2019-01-26T19:07:00.158Z,8.65
2019-01-26T19:09:31.847Z,8.69
2019-01-26T19:12:03.881Z,8.69
2019-01-26T19:14:35.716Z,8.70
2019-01-26T19:17:07.883Z,8.71
2019-01-26T19:19:39.539Z,8.72
2019-01-26T19:22:11.458Z,8.73
2019-01-26T19:24:43.144Z,8.73
2019-01-26T19:27:14.840Z,8.73
2019-01-26T19:29:46.505Z,8.73
2019-01-26T19:32:18.228Z,8.75
2019-01-26T19:34:49.971Z,8.75
2019-01-26T19:37:26.823Z,8.78
2019-01-26T19:39:58.642Z,8.79
2019-01-26T19:42:31.809Z,8.81
2019-01-26T19:45:03.562Z,8.81
2019-01-26T19:47:35.683Z,8.81
2019-01-26T19:50:08.475Z,8.81
2019-01-26T19:52:40.351Z,8.82
2019-01-26T19:55:12.212Z,8.83
2019-01-26T19:57:44.006Z,8.86
2019-01-26T20:00:16.530Z,8.86
2019-01-26T20:02:48.336Z,8.86
2019-01-26T20:05:22.371Z,8.85
2019-01-26T20:07:54.351Z,8.82
2019-01-26T20:10:26.244Z,8.81
2019-01-26T20:12:58.111Z,8.79
2019-01-26T20:15:29.881Z,8.76
2019-01-26T20:18:01.538Z,8.74
2019-01-26T20:20:35.902Z,8.73
2019-01-26T20:23:07.736Z,8.73
2019-01-26T20:25:39.604Z,8.72
2019-01-26T20:28:12.161Z,8.74
2019-01-26T20:30:43.951Z,8.74
2019-01-26T20:33:16.983Z,8.74
2019-01-26T20:35:48.630Z,8.75
2019-01-26T20:38:20.416Z,8.76
2019-01-26T20:40:52.734Z,8.76
2019-01-26T20:43:24.587Z,8.75
2019-01-26T20:45:56.313Z,8.75
2019-01-26T20:48:28.054Z,8.76
2019-01-26T20:50:59.809Z,8.78
2019-01-26T20:53:32.728Z,8.79
2019-01-26T20:56:06.498Z,8.80
2019-01-26T20:58:38.216Z,8.81
2019-01-26T21:01:10.208Z,8.84
2019-01-26T21:03:41.943Z,8.84
2019-01-26T21:06:14.020Z,8.87
2019-01-26T21:08:45.873Z,8.88
2019-01-26T21:11:17.889Z,8.88
2019-01-26T21:13:49.934Z,8.89
2019-01-26T21:16:21.727Z,8.90
2019-01-26T21:18:53.679Z,8.92
2019-01-26T21:21:31.963Z,8.93
2019-01-26T21:24:00.454Z,8.95
2019-01-26T21:26:32.430Z,8.95
2019-01-26T21:29:04.417Z,8.97
2019-01-26T21:31:36.569Z,8.98
2019-01-26T21:34:08.552Z,9.00
2019-01-26T21:36:40.346Z,9.03
2019-01-26T21:39:12.054Z,9.02
2019-01-26T21:41:44.126Z,9.04
2019-01-26T21:44:19.752Z,9.06
2019-01-26T21:46:52.549Z,9.08
2019-01-26T21:49:24.344Z,9.09
2019-01-26T21:51:56.017Z,9.09
2019-01-26T21:54:27.767Z,9.09
2019-01-26T21:56:59.570Z,9.11
2019-01-26T21:59:31.221Z,9.14
2019-01-26T22:02:03.180Z,9.16
2019-01-26T22:04:35.031Z,9.17
2019-01-26T22:07:07.201Z,9.18
2019-01-26T22:09:38.879Z,9.20
2019-01-26T22:12:10.757Z,9.22
2019-01-26T22:14:42.743Z,9.22
2019-01-26T22:17:14.693Z,9.21
2019-01-26T22:19:46.363Z,9.21
2019-01-26T22:22:18.186Z,9.18
2019-01-26T22:24:50.120Z,9.17
2019-01-26T22:27:21.941Z,9.14
2019-01-26T22:29:54.802Z,9.12
2019-01-26T22:32:26.619Z,9.09
2019-01-26T22:34:58.349Z,9.10
2019-01-26T22:37:30.177Z,9.07
2019-01-26T22:40:01.826Z,9.06
2019-01-26T22:42:35.085Z,9.06
2019-01-26T22:45:08.239Z,9.07
2019-01-26T22:47:39.851Z,9.08
2019-01-26T22:50:13.852Z,9.13
2019-01-26T22:52:45.711Z,9.17
2019-01-26T22:55:18.562Z,9.20
2019-01-26T22:57:55.940Z,9.21
2019-01-26T23:01:28.231Z,9.23
2019-01-26T23:04:50.895Z,9.24
2019-01-26T23:07:51.838Z,9.22
2019-01-26T23:11:38.271Z,9.18
2019-01-26T23:15:25.885Z,9.19
2019-01-26T23:18:34.833Z,9.16
2019-01-26T23:22:33.749Z,9.15
2019-01-26T23:25:47.746Z,9.16
2019-01-26T23:28:53.494Z,9.16
2019-01-26T23:31:25.201Z,9.17
2019-01-26T23:33:58.006Z,9.18
2019-01-26T23:36:29.758Z,9.20
2019-01-26T23:39:02.530Z,9.23
2019-01-26T23:41:34.583Z,9.27
2019-01-26T23:44:08.028Z,9.30
2019-01-26T23:46:39.850Z,9.33
2019-01-26T23:49:11.455Z,9.37
2019-01-26T23:51:43.193Z,9.38
2019-01-26T23:54:14.924Z,9.39
2019-01-26T23:56:46.799Z,9.43
2019-01-26T23:59:18.462Z,9.43
